createdAt,value
2023-01-06T00:00:00.705Z,180.0
2023-01-06T00:05:00.671Z,180.0
2023-01-06T00:10:00.684Z,79.1
2023-01-06T00:15:00.653Z,82.1
2023-01-06T00:20:00.676Z,108.5
2023-01-06T00:25:00.743Z,72.4
2023-01-06T00:30:00.763Z,67.5
2023-01-06T00:35:00.637Z,67.5
2023-01-06T00:40:00.676Z,67.5
2023-01-06T00:45:00.623Z,220.7
2023-01-06T00:50:00.712Z,217.4
2023-01-06T00:55:00.632Z,224.9
2023-01-06T01:00:00.759Z,159.2
2023-01-06T01:05:00.670Z,143.6
2023-01-06T01:10:00.696Z,68.2
2023-01-06T01:15:00.639Z,67.5
2023-01-06T01:20:00.703Z,67.5
2023-01-06T01:25:00.641Z,67.5
2023-01-06T01:30:00.700Z,67.5
2023-01-06T01:35:00.655Z,67.5
2023-01-06T01:40:00.724Z,67.5
2023-01-06T01:45:00.625Z,67.5
2023-01-06T01:50:00.754Z,69.6
2023-01-06T01:55:00.661Z,58.3
2023-01-06T02:00:00.638Z,50.7
2023-01-06T02:05:00.664Z,64.6
2023-01-06T02:10:00.698Z,67.5
2023-01-06T02:15:00.680Z,67.5
2023-01-06T02:20:00.642Z,67.5
2023-01-06T02:25:00.639Z,89.7
2023-01-06T02:30:00.665Z,120.0
2023-01-06T02:35:00.623Z,137.3
2023-01-06T02:40:00.767Z,105.9
2023-01-06T02:45:00.673Z,110.6
2023-01-06T02:50:00.748Z,145.2
2023-01-06T02:55:00.640Z,155.0
2023-01-06T03:00:00.935Z,142.5
2023-01-06T03:05:00.633Z,144.0
2023-01-06T03:10:00.697Z,158.4
2023-01-06T03:15:00.653Z,155.4
2023-01-06T03:20:00.678Z,145.3
2023-01-06T03:25:00.656Z,131.0
2023-01-06T03:30:00.664Z,130.9
2023-01-06T03:35:00.653Z,135.0
2023-01-06T03:40:00.647Z,153.9
2023-01-06T03:45:00.644Z,155.9
2023-01-06T03:50:00.728Z,158.5
2023-01-06T03:55:00.680Z,149.7
2023-01-06T04:00:00.732Z,155.3
2023-01-06T04:05:00.639Z,156.0
2023-01-06T04:10:00.994Z,153.3
2023-01-06T04:15:00.748Z,158.6
2023-01-06T04:20:00.706Z,154.4
2023-01-06T04:25:00.752Z,137.5
2023-01-06T04:30:00.748Z,150.5
2023-01-06T04:35:00.660Z,139.6
2023-01-06T04:40:00.670Z,161.8
2023-01-06T04:45:00.685Z,153.5
2023-01-06T04:50:00.661Z,153.2
2023-01-06T04:55:00.700Z,158.2
2023-01-06T05:00:00.822Z,147.9
2023-01-06T05:05:01.806Z,143.4
2023-01-06T05:10:00.783Z,147.6
2023-01-06T05:15:00.641Z,156.1
2023-01-06T05:20:00.724Z,143.2
2023-01-06T05:25:00.654Z,153.7
2023-01-06T05:30:00.737Z,150.6
2023-01-06T05:35:00.637Z,159.6
2023-01-06T05:40:00.708Z,147.7
2023-01-06T05:45:00.715Z,153.2
2023-01-06T05:50:00.710Z,158.3
2023-01-06T05:55:00.664Z,159.5
2023-01-06T06:00:00.706Z,159.6
2023-01-06T06:05:00.676Z,143.1
2023-01-06T06:10:00.735Z,139.5
2023-01-06T06:15:00.636Z,150.8
2023-01-06T06:20:00.801Z,157.1
2023-01-06T06:25:00.628Z,156.5
2023-01-06T06:30:00.737Z,162.5
2023-01-06T06:35:00.662Z,162.3
2023-01-06T06:40:00.686Z,161.0
2023-01-06T06:45:00.642Z,165.1
2023-01-06T06:50:00.658Z,162.3
2023-01-06T06:55:00.671Z,167.8
2023-01-06T07:00:03.659Z,165.6
2023-01-06T07:05:00.681Z,163.0
2023-01-06T07:10:00.667Z,162.5
2023-01-06T07:15:00.643Z,165.5
2023-01-06T07:20:00.704Z,160.6
2023-01-06T07:25:00.803Z,167.7
2023-01-06T07:35:00.679Z,168.8
2023-01-06T07:40:00.694Z,163.1
2023-01-06T07:45:00.688Z,170.9
2023-01-06T07:50:00.682Z,167.0
2023-01-06T07:55:00.828Z,161.2
2023-01-06T08:00:00.770Z,169.9
2023-01-06T08:05:00.821Z,169.4
2023-01-06T08:10:00.731Z,171.6
2023-01-06T08:15:00.657Z,169.9
2023-01-06T08:20:00.759Z,167.6
2023-01-06T08:25:00.652Z,169.6
2023-01-06T08:30:00.779Z,162.0
2023-01-06T08:35:00.663Z,167.2
2023-01-06T08:40:00.787Z,168.7
2023-01-06T08:45:00.809Z,165.4
2023-01-06T08:50:00.773Z,165.4
2023-01-06T08:55:00.717Z,170.4
2023-01-06T09:00:00.731Z,177.1
2023-01-06T09:05:00.963Z,163.2
2023-01-06T09:10:00.715Z,173.8
2023-01-06T09:15:00.691Z,175.1
2023-01-06T09:20:00.826Z,174.1
2023-01-06T09:25:00.668Z,171.3
2023-01-06T09:30:00.749Z,179.7
2023-01-06T09:35:00.654Z,181.8
2023-01-06T09:40:00.883Z,182.0
2023-01-06T09:45:00.661Z,181.9
2023-01-06T09:50:00.827Z,169.3
2023-01-06T09:55:00.666Z,173.1
2023-01-06T10:00:00.725Z,174.0
2023-01-06T10:05:00.655Z,167.6
2023-01-06T10:10:00.740Z,175.2
2023-01-06T10:15:00.679Z,175.1
2023-01-06T10:20:00.735Z,169.9
2023-01-06T10:25:00.684Z,175.9
2023-01-06T10:30:00.698Z,174.5
2023-01-06T10:35:00.620Z,173.8
2023-01-06T10:40:00.683Z,174.9
2023-01-06T10:45:00.681Z,182.0
2023-01-06T10:50:00.726Z,168.4
2023-01-06T10:55:00.731Z,181.0
2023-01-06T11:00:00.693Z,168.1
2023-01-06T11:05:00.663Z,181.8
2023-01-06T11:10:00.668Z,185.8
2023-01-06T11:15:00.739Z,179.7
2023-01-06T11:20:00.669Z,173.7
2023-01-06T11:25:00.655Z,171.1
2023-01-06T11:30:00.678Z,175.0
2023-01-06T11:35:02.612Z,167.0
2023-01-06T11:40:12.064Z,187.4
2023-01-06T11:45:00.864Z,181.9
2023-01-06T11:50:00.836Z,184.7
2023-01-06T11:55:00.714Z,186.5
2023-01-06T12:00:00.809Z,179.4
2023-01-06T12:05:00.636Z,184.6
2023-01-06T12:10:00.674Z,203.6
2023-01-06T12:15:03.784Z,188.9
2023-01-06T12:20:00.670Z,193.0
2023-01-06T12:25:00.685Z,196.9
2023-01-06T12:30:00.743Z,196.0
2023-01-06T12:35:00.693Z,186.4
2023-01-06T12:40:00.779Z,194.6
2023-01-06T12:45:00.658Z,195.6
2023-01-06T12:50:00.702Z,203.0
2023-01-06T12:55:00.775Z,200.6
2023-01-06T13:00:00.692Z,201.0
2023-01-06T13:05:00.695Z,188.4
2023-01-06T13:10:00.706Z,196.0
2023-01-06T13:15:00.699Z,201.9
2023-01-06T13:20:00.767Z,187.5
2023-01-06T13:25:00.646Z,191.1
2023-01-06T13:30:00.735Z,204.9
2023-01-06T13:35:00.635Z,205.1
2023-01-06T13:40:00.745Z,193.7
2023-01-06T13:45:00.767Z,199.2
2023-01-06T13:50:00.856Z,215.8
2023-01-06T13:55:00.702Z,207.3
2023-01-06T14:00:00.706Z,202.8
2023-01-06T14:05:00.649Z,212.6
2023-01-06T14:10:00.696Z,206.5
2023-01-06T14:15:00.703Z,207.0
2023-01-06T14:20:02.795Z,211.1
2023-01-06T14:25:00.658Z,209.6
2023-01-06T14:30:00.765Z,211.6
2023-01-06T14:35:00.719Z,201.6
2023-01-06T14:40:00.711Z,207.0
2023-01-06T14:45:00.700Z,211.0
2023-01-06T14:50:00.737Z,199.9
2023-01-06T14:55:00.739Z,192.4
2023-01-06T15:00:00.712Z,206.3
2023-01-06T15:05:00.678Z,213.1
2023-01-06T15:10:01.192Z,203.6
2023-01-06T15:15:00.835Z,215.2
2023-01-06T15:20:00.754Z,222.7
2023-01-06T15:25:00.666Z,208.0
2023-01-06T15:30:00.731Z,223.1
2023-01-06T15:35:00.769Z,223.7
2023-01-06T15:40:00.687Z,210.4
2023-01-06T15:45:00.696Z,222.1
2023-01-06T15:50:00.685Z,239.1
2023-01-06T15:55:00.668Z,224.4
2023-01-06T16:00:00.697Z,223.3
2023-01-06T16:05:01.470Z,224.9
2023-01-06T16:10:00.686Z,213.5
2023-01-06T16:15:00.712Z,219.7
2023-01-06T16:20:02.505Z,212.4
2023-01-06T16:25:00.688Z,213.5
2023-01-06T16:30:00.973Z,208.0
2023-01-06T16:35:00.671Z,207.5
2023-01-06T16:40:01.028Z,214.9
2023-01-06T16:45:00.708Z,220.6
2023-01-06T16:50:01.424Z,211.0
2023-01-06T16:55:00.703Z,220.7
2023-01-06T17:00:00.930Z,226.2
2023-01-06T17:05:00.996Z,237.1
2023-01-06T17:10:00.715Z,229.7
2023-01-06T17:15:00.696Z,202.8
2023-01-06T17:20:00.747Z,215.2
2023-01-06T17:25:00.692Z,200.0
2023-01-06T17:30:00.768Z,198.9
2023-01-06T17:35:00.692Z,206.8
2023-01-06T17:40:00.751Z,213.0
2023-01-06T17:45:00.739Z,224.1
2023-01-06T17:50:00.760Z,222.1
2023-01-06T17:55:00.658Z,216.2
2023-01-06T18:00:00.737Z,215.3
2023-01-06T18:05:00.671Z,200.8
2023-01-06T18:10:00.723Z,208.6
2023-01-06T18:15:00.663Z,213.3
2023-01-06T18:20:00.658Z,201.5
2023-01-06T18:25:00.711Z,203.0
2023-01-06T18:30:00.690Z,196.8
2023-01-06T18:35:00.899Z,198.9
2023-01-06T18:40:00.680Z,193.8
2023-01-06T18:45:00.657Z,194.9
2023-01-06T18:50:02.720Z,201.6
2023-01-06T18:55:00.675Z,206.5
2023-01-06T19:00:00.751Z,196.3
2023-01-06T19:05:00.684Z,199.2
2023-01-06T19:10:00.732Z,199.5
2023-01-06T19:15:00.682Z,200.1
2023-01-06T19:20:00.729Z,198.0
2023-01-06T19:25:00.675Z,203.2
2023-01-06T19:30:00.662Z,193.6
2023-01-06T19:35:00.668Z,204.1
2023-01-06T19:40:02.635Z,202.2
2023-01-06T19:45:00.860Z,199.4
2023-01-06T19:50:00.666Z,195.5
2023-01-06T19:55:00.677Z,198.2
2023-01-06T20:00:00.744Z,190.9
2023-01-06T20:05:00.661Z,192.5
2023-01-06T20:10:00.683Z,194.2
2023-01-06T20:15:00.784Z,190.6
2023-01-06T20:20:00.742Z,197.5
2023-01-06T20:25:00.754Z,183.0
2023-01-06T20:30:00.725Z,180.9
2023-01-06T20:35:00.678Z,189.7
2023-01-06T20:40:02.668Z,190.3
2023-01-06T20:45:00.744Z,190.6
2023-01-06T20:50:00.699Z,189.3
2023-01-06T20:55:00.834Z,187.6
2023-01-06T21:00:00.732Z,195.4
2023-01-06T21:05:00.743Z,195.5
2023-01-06T21:10:00.730Z,192.2
2023-01-06T21:15:00.749Z,192.0
2023-01-06T21:20:00.668Z,190.3
2023-01-06T21:25:00.688Z,181.1
2023-01-06T21:30:00.690Z,200.4
2023-01-06T21:35:00.741Z,181.2
2023-01-06T21:40:00.731Z,183.0
2023-01-06T21:45:00.795Z,159.6
2023-01-06T21:50:00.687Z,163.7
2023-01-06T21:55:00.728Z,157.6
2023-01-06T22:00:00.707Z,159.8
2023-01-06T22:05:00.666Z,157.5
2023-01-06T22:10:00.657Z,157.5
2023-01-06T22:15:00.696Z,167.2
2023-01-06T22:20:00.652Z,182.1
2023-01-06T22:25:00.789Z,179.9
2023-01-06T22:30:00.757Z,183.4
2023-01-06T22:35:00.679Z,186.8
2023-01-06T22:40:00.764Z,188.5
2023-01-06T22:45:00.651Z,186.0
2023-01-06T22:50:00.774Z,187.5
2023-01-06T22:55:00.725Z,180.2
2023-01-06T23:00:00.752Z,182.2
2023-01-06T23:05:00.654Z,186.6
2023-01-06T23:10:00.696Z,187.6
2023-01-06T23:15:00.731Z,196.5
2023-01-06T23:20:00.722Z,197.6
2023-01-06T23:25:00.767Z,188.8
2023-01-06T23:30:00.695Z,190.0
2023-01-06T23:35:00.736Z,205.8
2023-01-06T23:40:00.718Z,195.2
2023-01-06T23:45:00.755Z,191.1
2023-01-06T23:50:00.695Z,185.7
2023-01-06T23:55:00.690Z,193.7
